createdAt,value
2022-08-29T00:01:52.994Z,19.20
2022-08-29T00:04:22.412Z,19.20
2022-08-29T00:06:51.912Z,19.10
2022-08-29T00:09:22.993Z,19.00
2022-08-29T00:11:52.539Z,19.00
2022-08-29T00:14:23.658Z,18.90
2022-08-29T00:16:53.527Z,18.80
2022-08-29T00:19:24.365Z,18.70
2022-08-29T00:21:54.417Z,18.60
2022-08-29T00:24:25.250Z,18.50
2022-08-29T00:26:54.947Z,18.50
2022-08-29T00:29:24.380Z,18.40
2022-08-29T00:31:53.940Z,18.30
2022-08-29T00:34:23.612Z,18.20
2022-08-29T00:36:53.602Z,18.20
2022-08-29T00:39:24.732Z,18.10
2022-08-29T00:41:56.276Z,18.00
2022-08-29T00:44:25.773Z,18.10
2022-08-29T00:46:58.845Z,18.00
2022-08-29T00:49:33.974Z,18.00
2022-08-29T00:52:08.688Z,18.00
2022-08-29T00:54:42.949Z,18.00
2022-08-29T00:57:13.937Z,18.00
2022-08-29T00:59:44.317Z,18.00
2022-08-29T01:02:13.731Z,18.00
2022-08-29T01:04:43.432Z,18.00
2022-08-29T01:07:14.272Z,18.00
2022-08-29T01:09:47.245Z,18.10
2022-08-29T01:12:16.360Z,18.10
2022-08-29T01:14:48.984Z,18.00
2022-08-29T01:17:23.770Z,18.10
2022-08-29T01:19:59.453Z,18.00
2022-08-29T01:22:49.358Z,18.00
2022-08-29T01:25:23.330Z,18.00
2022-08-29T01:28:01.077Z,18.00
2022-08-29T01:30:30.577Z,18.00
2022-08-29T01:33:01.235Z,18.00
2022-08-29T01:35:31.674Z,18.00
2022-08-29T01:38:03.764Z,18.00
2022-08-29T01:40:38.646Z,17.90
2022-08-29T01:43:08.949Z,17.90
2022-08-29T01:45:38.354Z,17.90
2022-08-29T01:48:07.714Z,17.90
2022-08-29T01:50:37.326Z,17.80
2022-08-29T01:53:06.668Z,17.80
2022-08-29T01:55:39.004Z,17.80
2022-08-29T01:58:09.401Z,17.90
2022-08-29T02:00:39.323Z,17.90
2022-08-29T02:03:08.872Z,17.90
2022-08-29T02:05:38.637Z,17.80
2022-08-29T02:08:08.334Z,17.80
2022-08-29T02:10:39.206Z,17.90
2022-08-29T02:13:09.153Z,17.80
2022-08-29T02:15:38.642Z,17.90
2022-08-29T02:18:08.109Z,17.80
2022-08-29T02:20:37.729Z,17.80
2022-08-29T02:23:21.878Z,17.80
2022-08-29T02:25:58.987Z,17.80
2022-08-29T02:28:28.375Z,17.80
2022-08-29T02:30:58.020Z,17.80
2022-08-29T02:33:29.015Z,17.80
2022-08-29T02:35:59.690Z,17.70
2022-08-29T02:38:30.912Z,17.80
2022-08-29T02:41:02.653Z,17.70
2022-08-29T02:43:32.026Z,17.70
2022-08-29T02:46:02.450Z,17.70
2022-08-29T02:48:31.982Z,17.70
2022-08-29T02:51:01.347Z,17.70
2022-08-29T02:53:32.770Z,17.70
2022-08-29T02:56:03.708Z,17.70
2022-08-29T02:58:34.507Z,17.70
2022-08-29T03:01:04.215Z,17.70
2022-08-29T03:03:35.567Z,17.70
2022-08-29T03:06:05.209Z,17.70
2022-08-29T03:08:35.196Z,17.70
2022-08-29T03:11:06.893Z,17.70
2022-08-29T03:13:37.341Z,17.70
2022-08-29T03:16:07.003Z,17.70
2022-08-29T03:18:36.368Z,17.70
2022-08-29T03:21:06.282Z,17.70
2022-08-29T03:23:35.734Z,17.70
2022-08-29T03:26:06.942Z,17.70
2022-08-29T03:28:37.232Z,17.60
2022-08-29T03:31:06.900Z,17.70
2022-08-29T03:33:36.347Z,17.70
2022-08-29T03:36:08.843Z,17.70
2022-08-29T03:38:46.823Z,17.70
2022-08-29T03:41:24.945Z,17.80
2022-08-29T03:43:55.525Z,17.70
2022-08-29T03:46:25.655Z,17.70
2022-08-29T03:48:55.596Z,17.80
2022-08-29T03:51:25.086Z,17.70
2022-08-29T03:54:00.489Z,17.70
2022-08-29T03:56:32.662Z,17.70
2022-08-29T03:59:02.815Z,17.80
2022-08-29T04:01:32.164Z,17.80
2022-08-29T04:04:01.705Z,17.80
2022-08-29T04:06:33.161Z,17.80
2022-08-29T04:09:03.153Z,17.80
2022-08-29T04:11:34.418Z,17.80
2022-08-29T04:14:03.795Z,17.80
2022-08-29T04:16:33.918Z,17.80
2022-08-29T04:19:03.301Z,17.80
2022-08-29T04:21:33.384Z,17.80
2022-08-29T04:24:03.061Z,17.80
2022-08-29T04:26:37.744Z,17.80
2022-08-29T04:29:09.741Z,17.70
2022-08-29T04:31:39.371Z,17.60
2022-08-29T04:34:11.341Z,17.70
2022-08-29T04:36:42.912Z,17.60
2022-08-29T04:39:13.361Z,17.60
2022-08-29T04:41:45.441Z,17.60
2022-08-29T04:44:15.474Z,17.60
2022-08-29T04:46:44.867Z,17.60
2022-08-29T04:49:14.477Z,17.60
2022-08-29T04:51:44.190Z,17.60
2022-08-29T04:54:13.660Z,17.60
2022-08-29T04:56:47.398Z,17.60
2022-08-29T04:59:18.354Z,17.60
2022-08-29T05:01:49.980Z,17.80
2022-08-29T05:04:20.223Z,17.70
2022-08-29T05:06:49.570Z,17.80
2022-08-29T05:09:18.921Z,17.80
2022-08-29T05:11:50.157Z,17.90
2022-08-29T05:14:19.631Z,17.90
2022-08-29T05:16:49.090Z,17.90
2022-08-29T05:19:18.818Z,17.80
2022-08-29T05:21:49.465Z,17.90
2022-08-29T05:24:19.030Z,17.90
2022-08-29T05:26:50.149Z,17.90
2022-08-29T05:29:21.170Z,17.90
2022-08-29T05:31:50.799Z,18.00
2022-08-29T05:34:34.330Z,18.00
2022-08-29T05:37:07.784Z,17.90
2022-08-29T05:39:37.843Z,17.90
2022-08-29T05:42:09.904Z,18.00
2022-08-29T05:44:39.581Z,17.90
2022-08-29T05:47:12.362Z,17.90
2022-08-29T05:49:43.485Z,17.90
2022-08-29T05:52:15.907Z,17.90
2022-08-29T05:54:45.719Z,17.80
2022-08-29T05:57:19.453Z,17.80
2022-08-29T05:59:49.688Z,17.80
2022-08-29T06:02:21.114Z,17.80
2022-08-29T06:04:50.769Z,17.80
2022-08-29T06:07:21.368Z,17.80
2022-08-29T06:09:53.838Z,17.90
2022-08-29T06:12:27.990Z,18.00
2022-08-29T06:14:57.480Z,18.10
2022-08-29T06:17:28.262Z,18.20
2022-08-29T06:19:58.020Z,18.40
2022-08-29T06:22:27.390Z,18.50
2022-08-29T06:24:57.751Z,18.60
2022-08-29T06:27:30.146Z,18.70
2022-08-29T06:30:01.928Z,18.70
2022-08-29T06:32:32.097Z,18.80
2022-08-29T06:35:02.334Z,18.90
2022-08-29T06:37:31.616Z,19.00
2022-08-29T06:40:01.278Z,19.00
2022-08-29T06:42:32.148Z,19.10
2022-08-29T06:45:02.158Z,19.30
2022-08-29T06:47:31.713Z,19.30
2022-08-29T06:50:01.150Z,19.30
2022-08-29T06:52:30.912Z,19.40
2022-08-29T06:55:00.366Z,19.50
2022-08-29T06:57:31.918Z,19.50
2022-08-29T07:00:01.913Z,19.50
2022-08-29T07:02:51.689Z,19.60
2022-08-29T07:05:23.394Z,19.60
2022-08-29T07:07:53.690Z,19.60
2022-08-29T07:10:23.058Z,19.70
2022-08-29T07:12:54.290Z,19.80
2022-08-29T07:15:25.642Z,19.90
2022-08-29T07:17:59.740Z,20.00
2022-08-29T07:20:30.064Z,19.90
2022-08-29T07:22:59.497Z,20.00
2022-08-29T07:25:29.074Z,20.00
2022-08-29T07:28:00.904Z,20.00
2022-08-29T07:30:30.536Z,20.10
2022-08-29T07:33:00.737Z,20.20
2022-08-29T07:35:30.955Z,20.20
2022-08-29T07:38:02.810Z,20.30
2022-08-29T07:40:32.226Z,20.30
2022-08-29T07:43:05.138Z,20.30
2022-08-29T07:45:39.995Z,20.30
2022-08-29T07:48:10.212Z,20.20
2022-08-29T07:50:42.907Z,20.30
2022-08-29T07:53:12.597Z,20.30
2022-08-29T07:55:42.033Z,20.30
2022-08-29T07:58:12.981Z,20.20
2022-08-29T08:00:42.953Z,20.30
2022-08-29T08:03:14.584Z,20.30
2022-08-29T08:05:44.326Z,20.40
2022-08-29T08:08:14.974Z,20.40
2022-08-29T08:10:47.874Z,20.40
2022-08-29T08:13:22.938Z,20.40
2022-08-29T08:15:52.619Z,20.40
2022-08-29T08:18:22.440Z,20.40
2022-08-29T08:20:51.989Z,20.40
2022-08-29T08:23:22.078Z,20.50
2022-08-29T08:25:51.927Z,20.60
2022-08-29T08:28:22.829Z,20.70
2022-08-29T08:30:53.013Z,20.80
2022-08-29T08:33:22.681Z,20.70
2022-08-29T08:35:52.182Z,20.70
2022-08-29T08:38:23.333Z,20.90
2022-08-29T08:41:02.786Z,21.00
2022-08-29T08:43:48.211Z,21.10
2022-08-29T08:46:18.352Z,21.10
2022-08-29T08:48:51.620Z,21.10
2022-08-29T08:51:27.449Z,21.10
2022-08-29T08:54:00.841Z,21.20
2022-08-29T08:56:36.948Z,21.20
2022-08-29T08:59:16.521Z,21.20
2022-08-29T09:01:56.677Z,21.30
2022-08-29T09:04:48.463Z,21.40
2022-08-29T09:07:39.735Z,21.50
2022-08-29T09:10:20.328Z,21.50
2022-08-29T09:13:01.201Z,21.50
2022-08-29T09:15:36.034Z,21.60
2022-08-29T09:18:13.546Z,21.50
2022-08-29T09:20:43.919Z,21.60
2022-08-29T09:23:20.291Z,21.60
2022-08-29T09:25:50.522Z,21.90
2022-08-29T09:28:20.179Z,21.90
2022-08-29T09:31:21.342Z,21.90
2022-08-29T09:33:54.037Z,22.00
2022-08-29T09:36:39.866Z,22.00
2022-08-29T09:39:20.494Z,21.80
2022-08-29T09:41:52.005Z,21.90
2022-08-29T09:44:25.768Z,21.70
2022-08-29T09:47:14.911Z,21.90
2022-08-29T09:50:04.624Z,22.10
2022-08-29T09:52:34.572Z,22.20
2022-08-29T09:55:21.493Z,22.20
2022-08-29T09:58:02.429Z,22.20
2022-08-29T10:00:36.424Z,22.30
2022-08-29T10:03:10.457Z,22.50
2022-08-29T10:05:44.718Z,22.60
2022-08-29T10:08:30.650Z,22.60
2022-08-29T10:11:03.688Z,22.50
2022-08-29T10:13:39.870Z,22.50
2022-08-29T10:16:18.330Z,22.60
2022-08-29T10:18:52.110Z,22.60
2022-08-29T10:21:32.242Z,22.60
2022-08-29T10:24:43.117Z,22.50
2022-08-29T10:27:23.832Z,22.60
2022-08-29T10:30:03.656Z,22.70
2022-08-29T10:32:48.358Z,22.90
2022-08-29T10:35:26.574Z,23.00
2022-08-29T10:37:59.572Z,23.00
2022-08-29T10:40:32.940Z,23.00
2022-08-29T10:43:18.385Z,22.80
2022-08-29T10:46:01.902Z,22.90
2022-08-29T10:48:37.787Z,23.20
2022-08-29T10:51:23.343Z,23.40
2022-08-29T10:53:59.113Z,23.40
2022-08-29T10:56:34.805Z,24.30
2022-08-29T10:59:12.582Z,24.90
2022-08-29T11:01:45.473Z,24.70
2022-08-29T11:04:20.212Z,23.90
2022-08-29T11:07:04.119Z,23.20
2022-08-29T11:09:47.526Z,23.00
2022-08-29T11:12:22.379Z,22.50
2022-08-29T11:14:58.560Z,22.80
2022-08-29T11:17:34.109Z,23.90
2022-08-29T11:20:11.762Z,24.60
2022-08-29T11:22:47.965Z,24.70
2022-08-29T11:25:20.422Z,24.90
2022-08-29T11:27:58.442Z,25.20
2022-08-29T11:30:41.801Z,25.00
2022-08-29T11:33:27.558Z,23.80
2022-08-29T11:36:25.739Z,23.30
2022-08-29T11:39:28.098Z,24.10
2022-08-29T11:42:00.437Z,24.90
2022-08-29T11:44:33.543Z,24.90
2022-08-29T11:47:06.094Z,24.30
2022-08-29T11:49:43.034Z,24.30
2022-08-29T11:52:27.769Z,24.90
2022-08-29T11:55:34.036Z,25.90
2022-08-29T11:58:11.690Z,26.70
2022-08-29T12:00:48.091Z,27.10
2022-08-29T12:03:59.748Z,27.10
2022-08-29T12:06:51.313Z,26.70
2022-08-29T12:09:47.984Z,26.80
2022-08-29T12:12:36.764Z,26.80
2022-08-29T12:15:42.297Z,27.20
2022-08-29T12:18:51.074Z,27.70
2022-08-29T12:21:46.114Z,26.50
2022-08-29T12:24:43.221Z,26.00
2022-08-29T12:27:52.245Z,25.30
2022-08-29T12:30:22.242Z,24.80
2022-08-29T12:33:04.246Z,25.70
2022-08-29T12:36:09.927Z,26.00
2022-08-29T12:38:50.940Z,24.90
2022-08-29T12:41:36.361Z,23.90
2022-08-29T12:44:14.682Z,23.60
2022-08-29T12:46:46.779Z,23.60
2022-08-29T12:49:23.705Z,24.20
2022-08-29T12:51:58.316Z,23.90
2022-08-29T12:54:34.345Z,23.40
2022-08-29T12:57:07.269Z,21.90
2022-08-29T12:59:37.183Z,20.40
2022-08-29T13:02:07.224Z,19.50
2022-08-29T13:04:39.221Z,18.90
2022-08-29T13:07:18.661Z,18.60
2022-08-29T13:09:53.604Z,18.40
2022-08-29T13:12:26.821Z,18.40
2022-08-29T13:14:59.664Z,18.40
2022-08-29T13:17:34.372Z,18.50
2022-08-29T13:20:48.812Z,18.60
2022-08-29T13:23:29.312Z,18.70
2022-08-29T13:26:02.581Z,18.90
2022-08-29T13:28:41.173Z,19.00
2022-08-29T13:31:36.423Z,19.10
2022-08-29T13:34:21.486Z,19.30
2022-08-29T13:36:59.549Z,19.50
2022-08-29T13:39:40.588Z,19.60
2022-08-29T13:42:23.187Z,20.00
2022-08-29T13:45:11.758Z,21.00
2022-08-29T13:47:47.397Z,21.80
2022-08-29T13:50:18.100Z,22.30
2022-08-29T13:52:47.662Z,21.90
2022-08-29T13:55:18.890Z,21.30
2022-08-29T13:57:52.246Z,20.90
2022-08-29T14:00:34.790Z,20.90
2022-08-29T14:03:09.608Z,21.60
2022-08-29T14:05:39.506Z,22.50
2022-08-29T14:08:11.691Z,22.80
2022-08-29T14:10:42.678Z,23.40
2022-08-29T14:13:12.978Z,22.90
2022-08-29T14:15:42.874Z,23.00
2022-08-29T14:18:12.997Z,23.00
2022-08-29T14:20:42.497Z,23.50
2022-08-29T14:23:11.967Z,23.60
2022-08-29T14:25:43.436Z,24.00
2022-08-29T14:28:16.006Z,24.20
2022-08-29T14:30:47.779Z,23.70
2022-08-29T14:33:23.767Z,23.60
2022-08-29T14:35:54.205Z,23.70
2022-08-29T14:38:23.922Z,23.40
2022-08-29T14:40:55.060Z,23.20
2022-08-29T14:43:25.277Z,22.90
2022-08-29T14:45:54.743Z,22.10
2022-08-29T14:48:24.240Z,21.60
2022-08-29T14:50:54.298Z,21.10
2022-08-29T14:53:23.888Z,21.20
2022-08-29T14:55:54.960Z,21.20
2022-08-29T14:58:24.885Z,21.20
2022-08-29T15:00:54.274Z,21.20
2022-08-29T15:03:25.661Z,21.10
2022-08-29T15:05:55.408Z,21.10
2022-08-29T15:08:24.932Z,21.10
2022-08-29T15:10:59.213Z,21.20
2022-08-29T15:13:29.087Z,21.50
2022-08-29T15:15:58.656Z,22.10
2022-08-29T15:19:07.824Z,22.10
2022-08-29T15:21:18.343Z,22.10
2022-08-29T15:23:49.258Z,22.00
2022-08-29T15:26:20.402Z,21.90
2022-08-29T15:28:49.701Z,22.00
2022-08-29T15:31:19.417Z,22.40
2022-08-29T15:33:49.105Z,22.10
2022-08-29T15:36:18.646Z,22.20
2022-08-29T15:38:48.495Z,22.10
2022-08-29T15:41:18.156Z,21.90
2022-08-29T15:43:49.153Z,21.60
2022-08-29T15:46:18.851Z,21.80
2022-08-29T15:48:48.589Z,21.60
2022-08-29T15:51:18.101Z,21.50
2022-08-29T15:53:48.016Z,21.30
2022-08-29T15:56:17.366Z,21.40
2022-08-29T15:58:49.734Z,21.70
2022-08-29T16:01:20.294Z,21.80
2022-08-29T16:03:49.952Z,22.10
2022-08-29T16:06:19.438Z,22.20
2022-08-29T16:08:49.230Z,22.20
2022-08-29T16:11:24.913Z,21.90
2022-08-29T16:14:15.721Z,22.00
2022-08-29T16:16:47.761Z,22.20
2022-08-29T16:19:18.990Z,22.70
2022-08-29T16:21:49.098Z,23.00
2022-08-29T16:24:19.078Z,23.20
2022-08-29T16:26:48.585Z,22.80
2022-08-29T16:29:26.605Z,22.20
2022-08-29T16:31:58.546Z,21.90
2022-08-29T16:34:28.515Z,21.30
2022-08-29T16:36:59.619Z,21.10
2022-08-29T16:39:29.432Z,20.80
2022-08-29T16:41:59.494Z,20.60
2022-08-29T16:44:32.073Z,20.40
2022-08-29T16:47:02.466Z,20.10
2022-08-29T16:49:31.986Z,19.90
2022-08-29T16:52:01.784Z,19.60
2022-08-29T16:54:31.922Z,19.60
2022-08-29T16:57:01.734Z,19.50
2022-08-29T16:59:35.250Z,19.40
2022-08-29T17:02:07.465Z,19.40
2022-08-29T17:04:36.958Z,19.30
2022-08-29T17:07:06.582Z,19.20
2022-08-29T17:09:34.998Z,19.20
2022-08-29T17:12:03.608Z,19.00
2022-08-29T17:14:33.395Z,18.80
2022-08-29T17:17:03.533Z,18.60
2022-08-29T17:19:33.775Z,18.30
2022-08-29T17:22:03.337Z,18.10
2022-08-29T17:24:33.383Z,18.00
2022-08-29T17:27:03.046Z,17.90
2022-08-29T17:29:34.303Z,17.80
2022-08-29T17:32:06.403Z,17.80
2022-08-29T17:34:35.741Z,17.90
2022-08-29T17:37:05.852Z,17.90
2022-08-29T17:39:39.799Z,17.90
2022-08-29T17:42:10.301Z,17.90
2022-08-29T17:44:41.235Z,17.90
2022-08-29T17:47:11.350Z,17.90
2022-08-29T17:49:40.718Z,18.00
2022-08-29T17:52:10.750Z,18.00
2022-08-29T17:54:40.450Z,17.90
2022-08-29T17:57:09.784Z,17.90
2022-08-29T17:59:40.682Z,17.90
2022-08-29T18:02:11.235Z,17.90
2022-08-29T18:04:40.732Z,17.90
2022-08-29T18:07:11.273Z,17.90
2022-08-29T18:09:41.739Z,17.90
2022-08-29T18:12:11.561Z,17.90
2022-08-29T18:14:42.371Z,17.90
2022-08-29T18:17:12.358Z,17.80
2022-08-29T18:19:42.030Z,17.80
2022-08-29T18:22:11.851Z,17.80
2022-08-29T18:24:41.716Z,17.80
2022-08-29T18:27:11.166Z,17.80
2022-08-29T18:29:42.137Z,17.90
2022-08-29T18:32:12.112Z,17.80
2022-08-29T18:34:42.441Z,17.70
2022-08-29T18:37:13.970Z,17.60
2022-08-29T18:39:44.581Z,17.60
2022-08-29T18:42:30.808Z,17.60
2022-08-29T18:45:06.818Z,17.60
2022-08-29T18:47:36.293Z,17.60
2022-08-29T18:50:25.415Z,17.60
2022-08-29T18:52:57.385Z,17.50
2022-08-29T18:55:27.604Z,17.60
2022-08-29T18:57:57.585Z,17.60
2022-08-29T19:00:28.752Z,17.50
2022-08-29T19:03:00.092Z,17.40
2022-08-29T19:05:32.645Z,17.40
2022-08-29T19:08:02.725Z,17.40
2022-08-29T19:10:33.273Z,17.40
2022-08-29T19:13:03.856Z,17.50
2022-08-29T19:15:35.115Z,17.50
2022-08-29T19:18:12.526Z,17.40
2022-08-29T19:20:59.698Z,17.40
2022-08-29T19:23:29.529Z,17.40
2022-08-29T19:25:59.133Z,17.40
2022-08-29T19:28:29.553Z,17.30
2022-08-29T19:31:01.448Z,17.30
2022-08-29T19:33:31.003Z,17.30
2022-08-29T19:36:02.761Z,17.30
2022-08-29T19:38:32.261Z,17.30
2022-08-29T19:41:03.061Z,17.30
2022-08-29T19:43:34.846Z,17.30
2022-08-29T19:46:11.443Z,17.30
2022-08-29T19:48:43.923Z,17.30
2022-08-29T19:51:16.465Z,17.30
2022-08-29T19:53:46.446Z,17.30
2022-08-29T19:56:16.576Z,17.30
2022-08-29T19:58:46.104Z,17.40
2022-08-29T20:01:17.401Z,17.30
2022-08-29T20:03:47.988Z,17.40
2022-08-29T20:06:17.478Z,17.40
2022-08-29T20:08:48.390Z,17.40
2022-08-29T20:11:21.980Z,17.40
2022-08-29T20:13:52.914Z,17.40
2022-08-29T20:16:28.455Z,17.40
2022-08-29T20:18:58.429Z,17.40
2022-08-29T20:21:28.968Z,17.40
2022-08-29T20:23:58.623Z,17.40
2022-08-29T20:26:31.655Z,17.50
2022-08-29T20:29:03.668Z,17.50
2022-08-29T20:31:35.272Z,17.50
2022-08-29T20:34:05.770Z,17.50
2022-08-29T20:36:52.512Z,17.50
2022-08-29T20:39:24.279Z,17.40
2022-08-29T20:41:56.405Z,17.40
2022-08-29T20:44:32.932Z,17.40
2022-08-29T20:47:05.513Z,17.40
2022-08-29T20:49:36.426Z,17.40
2022-08-29T20:52:07.765Z,17.40
2022-08-29T20:54:38.529Z,17.30
2022-08-29T20:57:08.564Z,17.30
2022-08-29T20:59:43.171Z,17.20
2022-08-29T21:02:14.224Z,17.20
2022-08-29T21:05:01.078Z,17.20
2022-08-29T21:07:30.584Z,17.20
2022-08-29T21:10:02.053Z,17.30
2022-08-29T21:12:31.696Z,17.30
2022-08-29T21:15:01.765Z,17.30
2022-08-29T21:17:32.583Z,17.20
2022-08-29T21:20:02.723Z,17.20
2022-08-29T21:22:32.266Z,17.30
2022-08-29T21:25:01.776Z,17.30
2022-08-29T21:27:32.204Z,17.30
2022-08-29T21:30:01.508Z,17.30
2022-08-29T21:32:32.371Z,17.30
2022-08-29T21:35:02.425Z,17.30
2022-08-29T21:37:31.883Z,17.20
2022-08-29T21:40:01.301Z,17.20
2022-08-29T21:42:31.337Z,17.20
2022-08-29T21:45:00.799Z,17.20
2022-08-29T21:47:32.216Z,17.20
2022-08-29T21:50:02.346Z,17.20
2022-08-29T21:52:32.804Z,17.20
2022-08-29T21:55:02.245Z,17.20
2022-08-29T21:57:49.125Z,17.20
2022-08-29T22:00:20.133Z,17.20
2022-08-29T22:02:51.831Z,17.20
2022-08-29T22:05:22.365Z,17.20
2022-08-29T22:07:52.345Z,17.20
2022-08-29T22:10:24.466Z,17.20
2022-08-29T22:12:54.570Z,17.20
2022-08-29T22:15:41.315Z,17.20
2022-08-29T22:18:15.113Z,17.20
2022-08-29T22:20:46.868Z,17.10
2022-08-29T22:23:20.072Z,17.00
2022-08-29T22:25:49.735Z,16.90
2022-08-29T22:28:19.711Z,16.90
2022-08-29T22:30:49.078Z,16.90
2022-08-29T22:33:20.169Z,16.80
2022-08-29T22:35:53.223Z,16.80
2022-08-29T22:38:22.709Z,16.80
2022-08-29T22:40:52.170Z,16.80
2022-08-29T22:43:22.126Z,16.80
2022-08-29T22:45:53.206Z,16.80
2022-08-29T22:48:24.679Z,16.80
2022-08-29T22:50:58.407Z,16.80
2022-08-29T22:53:28.524Z,16.80
2022-08-29T22:55:58.049Z,16.80
2022-08-29T22:58:27.415Z,16.80
2022-08-29T23:00:57.698Z,16.80
2022-08-29T23:03:28.647Z,16.90
2022-08-29T23:05:59.278Z,16.90
2022-08-29T23:08:28.765Z,16.90
2022-08-29T23:10:58.163Z,16.80
2022-08-29T23:13:28.290Z,16.80
2022-08-29T23:16:00.532Z,16.70
2022-08-29T23:18:32.050Z,16.70
2022-08-29T23:21:01.569Z,16.70
2022-08-29T23:23:31.535Z,16.60
2022-08-29T23:26:00.949Z,16.50
2022-08-29T23:28:30.265Z,16.50
2022-08-29T23:31:00.751Z,16.40
2022-08-29T23:33:31.841Z,16.40
2022-08-29T23:36:01.969Z,16.40
2022-08-29T23:38:31.422Z,16.50
2022-08-29T23:41:01.310Z,16.50
2022-08-29T23:43:35.732Z,16.50
2022-08-29T23:46:07.670Z,16.50
2022-08-29T23:48:39.476Z,16.50
2022-08-29T23:51:10.221Z,16.50
2022-08-29T23:53:40.003Z,16.50
2022-08-29T23:56:11.257Z,16.50
2022-08-29T23:58:41.350Z,16.50
